createdAt,value
2023-01-12T00:01:53.163Z,25
2023-01-12T00:06:44.702Z,24.5
2023-01-12T00:11:35.258Z,24.6
2023-01-12T00:16:42.852Z,25.2
2023-01-12T00:22:04.925Z,26.8
2023-01-12T00:26:56.540Z,27.1
2023-01-12T00:32:18.963Z,26.4
2023-01-12T00:37:41.623Z,25.4
2023-01-12T00:43:09.209Z,24.8
2023-01-12T00:48:31.301Z,24.3
2023-01-12T00:53:54.467Z,24.6
2023-01-12T00:59:16.598Z,25.3
2023-01-12T01:04:39.947Z,26.7
2023-01-12T01:09:31.475Z,26.9
2023-01-12T01:14:23.437Z,26.3
2023-01-12T01:19:30.742Z,25.3
2023-01-12T01:24:37.780Z,24.8
2023-01-12T01:29:29.128Z,24.3
2023-01-12T01:34:34.965Z,24.1
2023-01-12T01:39:42.072Z,24.7
2023-01-12T01:45:04.345Z,26.3
2023-01-12T01:50:26.415Z,26.9
2023-01-12T01:55:33.762Z,26.8
2023-01-12T02:00:55.830Z,25.3
2023-01-12T02:06:07.634Z,24.8
2023-01-12T02:10:59.130Z,24.3
2023-01-12T02:16:21.808Z,23.9
2023-01-12T02:21:43.269Z,24.6
2023-01-12T02:27:05.828Z,26.1
2023-01-12T02:32:13.423Z,26.9
2023-01-12T02:37:35.170Z,26.8
2023-01-12T02:43:00.452Z,25.3
2023-01-12T02:48:22.377Z,24.8
2023-01-12T02:53:43.715Z,24.2
2023-01-12T02:59:06.531Z,24.1
2023-01-12T03:04:29.353Z,24.9
2023-01-12T03:09:51.500Z,26.3
2023-01-12T03:14:58.468Z,26.9
2023-01-12T03:20:20.850Z,26.7
2023-01-12T03:25:27.722Z,25.1
2023-01-12T03:30:50.207Z,24.8
2023-01-12T03:36:12.982Z,24.1
2023-01-12T03:41:35.537Z,24.3
2023-01-12T03:46:58.576Z,25
2023-01-12T03:52:20.689Z,26.4
2023-01-12T03:57:42.231Z,26.9
2023-01-12T04:03:05.227Z,26.8
2023-01-12T04:08:28.084Z,25.1
2023-01-12T04:13:19.103Z,24.7
2023-01-12T04:18:42.265Z,24.1
2023-01-12T04:24:04.872Z,24.1
2023-01-12T04:28:55.292Z,24.8
2023-01-12T04:34:18.143Z,25.7
2023-01-12T04:39:40.521Z,25.1
2023-01-12T04:45:05.250Z,24.8
2023-01-12T04:50:27.620Z,26.4
2023-01-12T04:55:50.470Z,26.9
2023-01-12T05:01:12.954Z,26.8
2023-01-12T05:06:38.710Z,25.2
2023-01-12T05:12:00.561Z,24.8
2023-01-12T05:17:22.974Z,24.1
2023-01-12T05:22:49.087Z,24.3
2023-01-12T05:27:55.617Z,25.1
2023-01-12T05:33:19.552Z,26.4
2023-01-12T05:38:27.061Z,26.9
2023-01-12T05:43:33.977Z,26.8
2023-01-12T05:48:55.552Z,25.2
2023-01-12T05:54:17.891Z,24.7
2023-01-12T05:59:25.202Z,24.1
2023-01-12T06:04:48.633Z,24.3
2023-01-12T06:09:42.170Z,24.8
2023-01-12T06:14:49.084Z,26.3
2023-01-12T06:20:11.917Z,26.9
2023-01-12T06:25:34.791Z,26.9
2023-01-12T06:30:56.975Z,25.3
2023-01-12T06:36:27.233Z,24.8
2023-01-12T06:41:50.254Z,24.1
2023-01-12T06:47:13.148Z,24.1
2023-01-12T06:52:35.398Z,24.8
2023-01-12T06:57:57.637Z,26.3
2023-01-12T07:03:20.759Z,26.9
2023-01-12T07:08:43.332Z,26.9
2023-01-12T07:14:09.027Z,25.2
2023-01-12T07:19:31.805Z,24.8
2023-01-12T07:24:56.499Z,24.1
2023-01-12T07:30:19.881Z,24.2
2023-01-12T07:35:42.025Z,24.9
2023-01-12T07:41:07.294Z,26.4
2023-01-12T07:46:30.066Z,26.9
2023-01-12T07:51:54.381Z,26.7
2023-01-12T07:57:17.164Z,25
2023-01-12T08:02:42.905Z,24.6
2023-01-12T08:08:05.309Z,23.9
2023-01-12T08:13:28.229Z,23.7
2023-01-12T08:18:50.851Z,23.4
2023-01-12T08:24:14.960Z,23.2
2023-01-12T08:29:37.624Z,22.9
2023-01-12T08:35:18.190Z,23.4
2023-01-12T08:40:41.963Z,24.3
2023-01-12T08:46:05.906Z,25.6
2023-01-12T08:51:32.400Z,25.4
2023-01-12T08:56:54.961Z,24.3
2023-01-12T09:02:03.447Z,23.9
2023-01-12T09:07:10.970Z,23.4
2023-01-12T09:12:33.937Z,23.1
2023-01-12T09:18:11.246Z,22.9
2023-01-12T09:23:34.626Z,22.8
2023-01-12T09:28:59.609Z,23.4
2023-01-12T09:34:32.310Z,25.2
2023-01-12T09:40:01.602Z,25.5
2023-01-12T09:45:09.083Z,24.4
2023-01-12T09:50:41.916Z,23.9
2023-01-12T09:56:04.570Z,23.4
2023-01-12T10:01:46.688Z,23
2023-01-12T10:07:20.233Z,22.9
2023-01-12T10:12:43.523Z,22.6
2023-01-12T10:18:06.544Z,23.2
2023-01-12T10:23:32.945Z,24.8
2023-01-12T10:28:55.944Z,25.4
2023-01-12T10:34:22.620Z,24.8
2023-01-12T10:39:44.969Z,23.9
2023-01-12T10:45:18.147Z,23.4
2023-01-12T10:50:40.901Z,22.9
2023-01-12T10:56:06.721Z,22.8
2023-01-12T11:01:29.950Z,22.5
2023-01-12T11:06:53.997Z,23.1
2023-01-12T11:12:18.493Z,24.4
2023-01-12T11:17:46.998Z,25.3
2023-01-12T11:23:11.827Z,25.3
2023-01-12T11:28:34.014Z,23.9
2023-01-12T11:33:42.332Z,23.6
2023-01-12T11:38:49.778Z,23
2023-01-12T11:43:56.803Z,22.8
2023-01-12T11:49:22.918Z,22.6
2023-01-12T11:54:47.667Z,23
2023-01-12T12:00:13.901Z,23.8
2023-01-12T12:05:37.390Z,25.2
2023-01-12T12:11:00.251Z,25.4
2023-01-12T12:16:26.550Z,24.1
2023-01-12T12:21:36.157Z,23.6
2023-01-12T12:27:00.062Z,23.1
2023-01-12T12:32:22.855Z,22.7
2023-01-12T12:37:30.089Z,23
2023-01-12T12:42:53.390Z,24.2
2023-01-12T12:48:16.242Z,25.3
2023-01-12T12:53:40.864Z,25.3
2023-01-12T12:59:04.985Z,23.9
2023-01-12T13:03:57.509Z,23.6
2023-01-12T13:08:49.655Z,23
2023-01-12T13:13:59.752Z,22.8
2023-01-12T13:19:22.934Z,23
2023-01-12T13:24:53.961Z,24.3
2023-01-12T13:30:19.023Z,25.3
2023-01-12T13:35:11.030Z,25.3
2023-01-12T13:40:37.203Z,23.9
2023-01-12T13:45:47.789Z,23.6
2023-01-12T13:51:11.051Z,22.9
2023-01-12T13:56:34.330Z,22.7
2023-01-12T14:01:58.347Z,23
2023-01-12T14:07:24.409Z,24.6
2023-01-12T14:13:01.119Z,25.4
2023-01-12T14:18:46.349Z,25.2
2023-01-12T14:24:08.819Z,23.8
2023-01-12T14:29:32.048Z,23.3
2023-01-12T14:34:55.577Z,22.9
2023-01-12T14:40:17.644Z,22.7
2023-01-12T14:45:40.859Z,23.4
2023-01-12T14:51:03.817Z,25.1
2023-01-12T14:56:26.373Z,25.5
2023-01-12T15:01:50.142Z,25.3
2023-01-12T15:07:21.801Z,25
2023-01-12T15:12:43.794Z,24.7
2023-01-12T15:18:06.679Z,24.4
2023-01-12T15:23:29.647Z,24.1
2023-01-12T15:29:04.298Z,23.8
2023-01-12T15:34:40.449Z,23.4
2023-01-12T15:40:03.010Z,23.1
2023-01-12T15:45:25.105Z,22.8
2023-01-12T15:50:48.224Z,22.4
2023-01-12T15:56:10.619Z,22.1
2023-01-12T16:01:17.354Z,21.8
2023-01-12T16:07:48.329Z,21.7
2023-01-12T16:13:10.825Z,22.3
2023-01-12T16:18:18.187Z,24.8
2023-01-12T16:23:40.950Z,26.3
2023-01-12T16:29:05.464Z,27.4
2023-01-12T16:34:29.463Z,28.3
2023-01-12T16:39:52.206Z,28.5
2023-01-12T16:45:01.834Z,28.6
2023-01-12T16:50:09.416Z,28.8
2023-01-12T16:55:32.841Z,29.2
2023-01-12T17:00:59.859Z,29.6
2023-01-12T17:06:26.532Z,29.9
2023-01-12T17:11:21.245Z,29.9
2023-01-12T17:16:57.589Z,29.9
2023-01-12T17:22:08.301Z,29.9
2023-01-12T17:27:32.864Z,29.8
2023-01-12T17:32:29.672Z,30.2
2023-01-12T17:37:36.891Z,30.1
2023-01-12T17:43:00.464Z,30.1
2023-01-12T17:48:24.991Z,30.3
2023-01-12T17:53:35.918Z,30.7
2023-01-12T17:58:53.770Z,30.9
2023-01-12T18:04:18.499Z,31.1
2023-01-12T18:10:04.421Z,30.9
2023-01-12T18:15:28.606Z,31.1
2023-01-12T18:20:37.599Z,30.9
2023-01-12T18:26:01.713Z,31.3
2023-01-12T18:31:26.263Z,31.5
2023-01-12T18:36:51.530Z,31.7
2023-01-12T18:42:16.313Z,31.8
2023-01-12T18:47:42.899Z,31.9
2023-01-12T18:52:53.385Z,32.1
2023-01-12T18:58:22.083Z,32
2023-01-12T19:03:50.986Z,32
2023-01-12T19:09:19.867Z,31.9
2023-01-12T19:14:49.689Z,31.8
2023-01-12T19:20:20.439Z,31.8
2023-01-12T19:25:19.750Z,31.7
2023-01-12T19:30:37.063Z,32
2023-01-12T19:36:20.336Z,31.9
2023-01-12T19:41:51.282Z,32.1
2023-01-12T19:47:23.024Z,32.2
2023-01-12T19:52:54.754Z,32.3
2023-01-12T19:58:11.108Z,32.3
2023-01-12T20:03:37.617Z,32.3
2023-01-12T20:08:50.734Z,31.8
2023-01-12T20:14:19.616Z,31.5
2023-01-12T20:19:51.652Z,31.4
2023-01-12T20:25:04.903Z,30.9
2023-01-12T20:30:28.581Z,30.4
2023-01-12T20:36:04.378Z,30
2023-01-12T20:41:32.131Z,29.6
2023-01-12T20:46:57.391Z,29.3
2023-01-12T20:52:24.564Z,29
2023-01-12T20:57:48.454Z,28.7
2023-01-12T21:03:01.065Z,28.4
2023-01-12T21:08:24.006Z,28.3
2023-01-12T21:13:34.115Z,28.1
2023-01-12T21:18:57.731Z,27.9
2023-01-12T21:24:21.058Z,27.7
2023-01-12T21:29:44.195Z,27.5
2023-01-12T21:35:08.117Z,27.3
2023-01-12T21:40:15.840Z,27.1
2023-01-12T21:45:38.807Z,27
2023-01-12T21:50:48.569Z,26.8
2023-01-12T21:55:56.502Z,26.3
2023-01-12T22:01:03.646Z,25.8
2023-01-12T22:06:27.630Z,25.7
2023-01-12T22:11:34.917Z,25.2
2023-01-12T22:16:42.314Z,25.2
2023-01-12T22:22:04.994Z,24.7
2023-01-12T22:27:26.990Z,25.8
2023-01-12T22:32:50.002Z,26.9
2023-01-12T22:38:16.025Z,27.4
2023-01-12T22:43:22.726Z,26.8
2023-01-12T22:48:37.998Z,25.9
2023-01-12T22:54:01.201Z,25.5
2023-01-12T22:59:23.197Z,25
2023-01-12T23:04:31.078Z,24.9
2023-01-12T23:09:38.212Z,24.4
2023-01-12T23:14:45.254Z,25
2023-01-12T23:20:07.659Z,25.7
2023-01-12T23:25:29.659Z,27.1
2023-01-12T23:30:36.246Z,27.2
2023-01-12T23:35:42.415Z,26.1
2023-01-12T23:41:05.212Z,25.4
2023-01-12T23:46:26.647Z,24.9
2023-01-12T23:51:48.607Z,24.5
2023-01-12T23:57:10.988Z,24.9
